createdAt,value
2019-02-09T09:46:32.655Z,98820.28
2019-02-09T09:49:04.958Z,98855.33
2019-02-09T09:51:47.665Z,98838.98
2019-02-09T09:54:17.918Z,98821.89
2019-02-09T09:56:48.168Z,98827.04
2019-02-09T09:59:21.704Z,98831.88
2019-02-09T10:01:54.527Z,98816.05
2019-02-09T10:04:31.175Z,98835.28
2019-02-09T10:07:00.721Z,98839.38
2019-02-09T10:09:30.300Z,98843.47
2019-02-09T10:12:00.763Z,98846.48
2019-02-09T12:30:36.585Z,98880.72
2019-02-09T12:33:06.555Z,98878.56
2019-02-09T12:35:35.898Z,98887.53
2019-02-09T12:38:05.683Z,98865.10
2019-02-09T12:40:34.969Z,98874.37
2019-02-09T12:43:04.210Z,98887.13
2019-02-09T12:45:33.768Z,98856.13
2019-02-09T12:48:04.938Z,98870.42
2019-02-09T12:50:33.959Z,98867.64
2019-02-09T12:53:06.041Z,98877.55
2019-02-09T12:55:35.123Z,98861.91
2019-02-09T12:58:04.318Z,98858.58
2019-02-09T13:00:34.580Z,98864.37
2019-02-09T13:03:07.762Z,98872.17
2019-02-09T13:05:36.836Z,98870.42
2019-02-09T13:08:06.045Z,98869.01
2019-02-09T13:10:35.135Z,98883.00
2019-02-09T13:13:04.330Z,98888.69
2019-02-09T13:15:33.601Z,98894.14
2019-02-09T13:18:04.119Z,98904.91
2019-02-09T13:20:33.234Z,98897.87
2019-02-09T13:23:02.325Z,98892.76
2019-02-09T13:25:31.457Z,98885.86
2019-02-09T13:28:00.590Z,98886.34
2019-02-09T13:30:30.998Z,98884.22
2019-02-09T13:33:00.187Z,98887.51
2019-02-09T13:35:29.277Z,98890.23
2019-02-09T13:37:58.398Z,98889.66
2019-02-09T13:40:27.700Z,98894.80
2019-02-09T13:42:56.884Z,98900.46
2019-02-09T13:45:31.159Z,98894.27
2019-02-09T13:48:00.259Z,98895.33
2019-02-09T13:50:30.052Z,98891.22
2019-02-09T13:52:59.198Z,98891.47
2019-02-09T13:55:28.325Z,98876.55
2019-02-09T13:57:57.464Z,98886.41
2019-02-09T14:00:26.752Z,98878.78
2019-02-09T14:02:56.138Z,98887.42
2019-02-09T14:05:25.256Z,98892.94
2019-02-09T14:07:54.462Z,98878.81
2019-02-09T14:10:23.643Z,98904.06
2019-02-09T14:12:52.918Z,98884.66
2019-02-09T14:15:23.971Z,98895.86
2019-02-09T14:17:53.194Z,98884.72
2019-02-09T14:20:22.350Z,98900.16
2019-02-09T14:22:51.656Z,98902.60
2019-02-09T14:25:23.159Z,98910.63
2019-02-09T14:27:54.891Z,98903.30
2019-02-09T14:30:25.322Z,98903.69
2019-02-09T14:32:54.495Z,98897.38
2019-02-09T14:35:23.998Z,98917.75
2019-02-09T14:37:53.331Z,98933.23
2019-02-09T14:40:28.124Z,98963.77
2019-02-09T14:42:57.253Z,98963.03
2019-02-09T14:45:28.880Z,98952.23
2019-02-09T14:47:58.236Z,99007.38
2019-02-09T14:50:27.405Z,99006.64
2019-02-09T14:52:56.550Z,98987.45
2019-02-09T14:55:28.075Z,98999.55
2019-02-09T14:57:57.119Z,98973.48
2019-02-09T15:00:28.636Z,98989.36
2019-02-09T15:02:57.680Z,98992.47
2019-02-09T15:05:26.828Z,98997.34
2019-02-09T15:07:55.932Z,99002.74
2019-02-09T15:10:25.171Z,98995.42
2019-02-09T15:12:54.275Z,99002.06
2019-02-09T15:15:29.021Z,98998.96
2019-02-09T15:17:58.132Z,99004.70
2019-02-09T15:20:30.303Z,99005.30
2019-02-09T15:22:59.417Z,99004.03
2019-02-09T15:25:29.060Z,99009.78
2019-02-09T15:27:58.506Z,99005.05
2019-02-09T15:30:27.905Z,99009.58
2019-02-09T15:32:57.043Z,99001.71
2019-02-09T15:35:26.189Z,99000.44
2019-02-09T15:37:55.321Z,99000.01
2019-02-09T15:40:24.578Z,98998.31
2019-02-09T15:42:53.702Z,99008.76
2019-02-09T15:45:22.933Z,98996.52
2019-02-09T15:47:52.021Z,98999.59
2019-02-09T15:50:21.177Z,98996.09
2019-02-09T15:52:50.396Z,98995.19
2019-02-09T15:55:19.785Z,98993.80
2019-02-09T15:57:49.012Z,98991.14
2019-02-09T16:00:19.942Z,98994.63
2019-02-09T16:02:49.652Z,98995.58
2019-02-09T16:05:19.244Z,98998.55
2019-02-09T16:07:48.514Z,99007.27
2019-02-09T16:10:18.448Z,99024.27
2019-02-09T16:12:47.738Z,99007.72
2019-02-09T16:15:22.160Z,99017.67
2019-02-09T16:17:51.399Z,99011.55
2019-02-09T16:20:22.014Z,99011.03
2019-02-09T16:22:51.095Z,99020.59
2019-02-09T16:25:20.280Z,99025.73
2019-02-09T16:27:49.740Z,99005.66
2019-02-09T16:30:21.058Z,99023.59
2019-02-09T16:32:50.136Z,99026.31
2019-02-09T16:35:20.400Z,99029.77
2019-02-09T16:37:49.933Z,99059.88
2019-02-09T16:40:20.590Z,99031.96
2019-02-09T16:42:49.942Z,99032.83
2019-02-09T16:45:24.020Z,99035.71
2019-02-09T16:47:53.262Z,99043.95
2019-02-09T16:50:22.786Z,99052.23
2019-02-09T16:52:51.857Z,99041.67
2019-02-09T16:55:21.146Z,99038.94
2019-02-09T16:57:50.448Z,99043.17
2019-02-09T17:00:33.998Z,99045.31
2019-02-09T17:03:05.682Z,99039.15
2019-02-09T17:05:34.660Z,99054.77
2019-02-09T17:08:03.807Z,99046.06
2019-02-09T17:10:32.956Z,99054.77
2019-02-09T17:13:02.023Z,99056.48
2019-02-09T17:15:31.158Z,99065.61
2019-02-09T17:18:01.851Z,99058.67
2019-02-09T17:20:31.373Z,99056.87
2019-02-09T17:23:00.472Z,99059.91
2019-02-09T17:25:38.380Z,99068.23
2019-02-09T17:28:07.515Z,99061.63
2019-02-09T17:30:37.041Z,99075.59
2019-02-09T17:33:06.752Z,99072.08
2019-02-09T17:35:36.018Z,99078.23
2019-02-09T17:38:06.586Z,99078.14
2019-02-09T17:40:38.000Z,99082.48
2019-02-09T17:43:08.377Z,99086.41
2019-02-09T17:45:40.851Z,99084.25
2019-02-09T17:48:10.885Z,99099.41
2019-02-09T17:50:39.947Z,99102.52
2019-02-09T17:53:09.078Z,99097.81
2019-02-09T17:55:38.319Z,99111.88
2019-02-09T17:58:07.450Z,99106.33
2019-02-09T18:00:41.692Z,99115.11
2019-02-09T18:03:10.998Z,99115.11
2019-02-09T18:05:40.124Z,99118.72
2019-02-09T18:08:09.307Z,99135.73
2019-02-09T18:10:39.456Z,99121.89
2019-02-09T18:13:09.739Z,99129.79
2019-02-09T18:15:38.931Z,99125.37
2019-02-09T18:18:08.085Z,99137.16
2019-02-09T18:20:37.255Z,99125.45
2019-02-09T18:23:06.612Z,99121.43
2019-02-09T18:25:35.718Z,99123.56
2019-02-09T18:28:06.639Z,99130.16
2019-02-09T21:37:55.945Z,99111.28
2019-02-09T21:40:25.927Z,99119.61
2019-02-09T21:42:55.303Z,99110.02
2019-02-09T21:45:24.468Z,99123.14
2019-02-09T21:47:53.696Z,99146.18
2019-02-09T21:50:25.400Z,99116.66
2019-02-09T21:52:55.184Z,99131.11
2019-02-09T21:55:24.921Z,99120.09
2019-02-09T21:57:54.450Z,99118.78
2019-02-09T22:00:48.994Z,99116.95
2019-02-09T22:03:21.041Z,99120.59
2019-02-09T22:05:52.084Z,99118.05
2019-02-09T22:08:25.402Z,99112.39
2019-02-09T22:10:55.706Z,99102.77
2019-02-09T22:13:25.522Z,99110.63
2019-02-09T22:15:55.076Z,99089.69
2019-02-09T22:18:34.014Z,99102.36
2019-02-09T22:21:23.686Z,99098.50
2019-02-09T22:24:29.682Z,99087.62
2019-02-09T22:30:34.515Z,99090.58
2019-02-09T22:36:27.317Z,99092.05
2019-02-09T22:39:12.255Z,99079.72
2019-02-09T22:41:55.483Z,99081.92
2019-02-09T22:44:48.413Z,99085.83
2019-02-09T22:47:27.255Z,99084.52
2019-02-09T22:50:44.688Z,99078.86
2019-02-09T22:53:14.669Z,99074.05
2019-02-09T22:55:44.377Z,99057.94
2019-02-09T22:58:14.395Z,99068.84
2019-02-09T23:01:33.759Z,99066.20
2019-02-09T23:04:14.089Z,99063.20
2019-02-09T23:07:02.841Z,99060.08
2019-02-09T23:09:34.062Z,99053.12
2019-02-09T23:12:07.171Z,99052.30
2019-02-09T23:14:36.838Z,99041.34
2019-02-09T23:17:06.388Z,99040.02
2019-02-09T23:19:36.155Z,99035.70
2019-02-09T23:22:05.914Z,99034.39
2019-02-09T23:24:35.485Z,99030.91
2019-02-09T23:27:04.989Z,99023.84
2019-02-09T23:29:34.796Z,99017.69
2019-02-09T23:32:04.364Z,99014.18
2019-02-09T23:34:33.946Z,99014.54
2019-02-09T23:37:03.486Z,99026.30
2019-02-09T23:39:33.010Z,99010.25
2019-02-09T23:42:02.359Z,98992.42
2019-02-09T23:44:32.661Z,98996.78
2019-02-09T23:47:02.238Z,99002.92
2019-02-09T23:49:31.932Z,98997.75
2019-02-09T23:52:01.512Z,98982.05
